sensor_id;sensor_type;location;lat;lon;timestamp;P1;durP1;ratioP1;P2;durP2;ratioP2
21671;SDS011;10997;52.242;8.168;2022-08-05T00:02:21;10.30;;;4.00;;
21671;SDS011;10997;52.242;8.168;2022-08-05T00:07:22;14.45;;;4.10;;
21671;SDS011;10997;52.242;8.168;2022-08-05T00:12:23;11.73;;;4.45;;
21671;SDS011;10997;52.242;8.168;2022-08-05T00:17:24;14.85;;;5.97;;
21671;SDS011;10997;52.242;8.168;2022-08-05T00:22:25;16.75;;;6.55;;
21671;SDS011;10997;52.242;8.168;2022-08-05T00:27:25;11.43;;;6.43;;
21671;SDS011;10997;52.242;8.168;2022-08-05T00:32:27;14.95;;;7.47;;
21671;SDS011;10997;52.242;8.168;2022-08-05T00:37:28;15.40;;;7.20;;
21671;SDS011;10997;52.242;8.168;2022-08-05T00:42:32;13.18;;;7.20;;
21671;SDS011;10997;52.242;8.168;2022-08-05T00:47:35;14.70;;;7.07;;
21671;SDS011;10997;52.242;8.168;2022-08-05T00:52:36;14.05;;;7.82;;
21671;SDS011;10997;52.242;8.168;2022-08-05T00:57:36;16.67;;;8.38;;
21671;SDS011;10997;52.242;8.168;2022-08-05T01:02:37;16.83;;;8.80;;
21671;SDS011;10997;52.242;8.168;2022-08-05T01:07:38;18.15;;;8.63;;
21671;SDS011;10997;52.242;8.168;2022-08-05T01:12:38;17.30;;;8.45;;
21671;SDS011;10997;52.242;8.168;2022-08-05T01:17:48;15.13;;;8.63;;
21671;SDS011;10997;52.242;8.168;2022-08-05T01:33:24;17.67;;;9.07;;
21671;SDS011;10997;52.242;8.168;2022-08-05T01:38:39;17.88;;;8.98;;
21671;SDS011;10997;52.242;8.168;2022-08-05T01:43:41;21.63;;;9.82;;
21671;SDS011;10997;52.242;8.168;2022-08-05T01:48:43;15.88;;;9.73;;
21671;SDS011;10997;52.242;8.168;2022-08-05T01:53:46;15.07;;;9.43;;
21671;SDS011;10997;52.242;8.168;2022-08-05T01:58:49;18.80;;;10.35;;
21671;SDS011;10997;52.242;8.168;2022-08-05T02:03:51;18.67;;;10.98;;
21671;SDS011;10997;52.242;8.168;2022-08-05T02:08:54;16.63;;;10.23;;
21671;SDS011;10997;52.242;8.168;2022-08-05T02:14:08;18.13;;;10.70;;
21671;SDS011;10997;52.242;8.168;2022-08-05T02:24:13;18.95;;;11.77;;
21671;SDS011;10997;52.242;8.168;2022-08-05T02:29:19;18.77;;;11.77;;
21671;SDS011;10997;52.242;8.168;2022-08-05T02:34:21;21.80;;;12.25;;
21671;SDS011;10997;52.242;8.168;2022-08-05T02:39:28;21.75;;;12.85;;
21671;SDS011;10997;52.242;8.168;2022-08-05T02:44:34;19.67;;;11.75;;
21671;SDS011;10997;52.242;8.168;2022-08-05T02:49:37;19.52;;;11.00;;
21671;SDS011;10997;52.242;8.168;2022-08-05T02:54:41;19.48;;;11.05;;
21671;SDS011;10997;52.242;8.168;2022-08-05T02:59:44;17.00;;;10.77;;
21671;SDS011;10997;52.242;8.168;2022-08-05T03:04:46;15.20;;;10.73;;
21671;SDS011;10997;52.242;8.168;2022-08-05T03:09:49;19.83;;;11.20;;
21671;SDS011;10997;52.242;8.168;2022-08-05T03:14:50;17.88;;;10.82;;
21671;SDS011;10997;52.242;8.168;2022-08-05T03:19:50;18.48;;;11.70;;
21671;SDS011;10997;52.242;8.168;2022-08-05T03:24:51;18.30;;;10.52;;
21671;SDS011;10997;52.242;8.168;2022-08-05T03:29:52;15.90;;;9.50;;
21671;SDS011;10997;52.242;8.168;2022-08-05T03:34:53;18.30;;;9.82;;
21671;SDS011;10997;52.242;8.168;2022-08-05T03:39:57;15.43;;;9.85;;
21671;SDS011;10997;52.242;8.168;2022-08-05T03:44:59;16.07;;;9.50;;
21671;SDS011;10997;52.242;8.168;2022-08-05T03:50:00;18.35;;;9.25;;
21671;SDS011;10997;52.242;8.168;2022-08-05T03:55:02;16.90;;;9.60;;
21671;SDS011;10997;52.242;8.168;2022-08-05T04:00:10;16.88;;;10.35;;
21671;SDS011;10997;52.242;8.168;2022-08-05T04:05:12;14.35;;;9.27;;
21671;SDS011;10997;52.242;8.168;2022-08-05T04:10:15;17.63;;;10.50;;
21671;SDS011;10997;52.242;8.168;2022-08-05T04:15:16;22.85;;;9.93;;
21671;SDS011;10997;52.242;8.168;2022-08-05T04:20:18;14.98;;;9.15;;
21671;SDS011;10997;52.242;8.168;2022-08-05T04:25:21;22.58;;;10.13;;
21671;SDS011;10997;52.242;8.168;2022-08-05T04:30:22;16.23;;;10.07;;
21671;SDS011;10997;52.242;8.168;2022-08-05T04:35:22;17.13;;;10.43;;
21671;SDS011;10997;52.242;8.168;2022-08-05T04:40:23;17.25;;;10.88;;
21671;SDS011;10997;52.242;8.168;2022-08-05T04:45:24;15.13;;;9.73;;
21671;SDS011;10997;52.242;8.168;2022-08-05T04:50:25;16.90;;;9.40;;
21671;SDS011;10997;52.242;8.168;2022-08-05T04:55:25;19.23;;;10.43;;
21671;SDS011;10997;52.242;8.168;2022-08-05T05:00:26;19.63;;;11.80;;
21671;SDS011;10997;52.242;8.168;2022-08-05T05:05:27;18.30;;;11.55;;
21671;SDS011;10997;52.242;8.168;2022-08-05T05:10:29;18.73;;;12.85;;
21671;SDS011;10997;52.242;8.168;2022-08-05T05:15:31;21.40;;;14.45;;
21671;SDS011;10997;52.242;8.168;2022-08-05T05:20:32;23.23;;;14.00;;
21671;SDS011;10997;52.242;8.168;2022-08-05T05:25:33;21.13;;;14.75;;
21671;SDS011;10997;52.242;8.168;2022-08-05T05:30:33;21.83;;;14.40;;
21671;SDS011;10997;52.242;8.168;2022-08-05T05:35:34;21.67;;;15.20;;
21671;SDS011;10997;52.242;8.168;2022-08-05T05:40:35;25.83;;;16.33;;
21671;SDS011;10997;52.242;8.168;2022-08-05T05:45:36;23.92;;;16.77;;
21671;SDS011;10997;52.242;8.168;2022-08-05T05:50:36;28.60;;;17.52;;
21671;SDS011;10997;52.242;8.168;2022-08-05T05:55:39;24.02;;;17.23;;
21671;SDS011;10997;52.242;8.168;2022-08-05T06:00:40;23.27;;;17.23;;
21671;SDS011;10997;52.242;8.168;2022-08-05T06:05:41;25.75;;;18.27;;
21671;SDS011;10997;52.242;8.168;2022-08-05T06:10:41;23.95;;;18.60;;
21671;SDS011;10997;52.242;8.168;2022-08-05T06:15:42;26.25;;;17.85;;
21671;SDS011;10997;52.242;8.168;2022-08-05T06:20:43;22.25;;;17.25;;
21671;SDS011;10997;52.242;8.168;2022-08-05T06:25:43;24.77;;;17.20;;
21671;SDS011;10997;52.242;8.168;2022-08-05T06:30:44;25.60;;;15.65;;
21671;SDS011;10997;52.242;8.168;2022-08-05T06:35:45;26.70;;;16.75;;
21671;SDS011;10997;52.242;8.168;2022-08-05T06:40:45;21.35;;;16.23;;
21671;SDS011;10997;52.242;8.168;2022-08-05T06:45:46;23.42;;;15.77;;
21671;SDS011;10997;52.242;8.168;2022-08-05T06:50:47;22.35;;;16.00;;
21671;SDS011;10997;52.242;8.168;2022-08-05T06:55:47;25.63;;;16.35;;
21671;SDS011;10997;52.242;8.168;2022-08-05T07:00:48;21.98;;;16.90;;
21671;SDS011;10997;52.242;8.168;2022-08-05T07:05:49;24.27;;;17.55;;
21671;SDS011;10997;52.242;8.168;2022-08-05T07:10:50;24.27;;;17.73;;
21671;SDS011;10997;52.242;8.168;2022-08-05T07:15:51;29.30;;;17.05;;
21671;SDS011;10997;52.242;8.168;2022-08-05T07:21:10;26.13;;;18.05;;
21671;SDS011;10997;52.242;8.168;2022-08-05T07:26:10;25.08;;;17.02;;
21671;SDS011;10997;52.242;8.168;2022-08-05T07:31:11;22.70;;;15.75;;
21671;SDS011;10997;52.242;8.168;2022-08-05T07:36:12;20.20;;;15.80;;
21671;SDS011;10997;52.242;8.168;2022-08-05T07:41:15;24.73;;;15.55;;
21671;SDS011;10997;52.242;8.168;2022-08-05T07:46:17;20.27;;;15.48;;
21671;SDS011;10997;52.242;8.168;2022-08-05T07:51:17;19.65;;;15.80;;
21671;SDS011;10997;52.242;8.168;2022-08-05T07:56:18;21.15;;;15.45;;
21671;SDS011;10997;52.242;8.168;2022-08-05T08:01:19;23.40;;;15.77;;
21671;SDS011;10997;52.242;8.168;2022-08-05T08:06:19;17.70;;;14.05;;
21671;SDS011;10997;52.242;8.168;2022-08-05T08:11:20;21.65;;;14.30;;
21671;SDS011;10997;52.242;8.168;2022-08-05T08:16:21;20.95;;;14.63;;
21671;SDS011;10997;52.242;8.168;2022-08-05T08:21:21;15.68;;;11.82;;
21671;SDS011;10997;52.242;8.168;2022-08-05T08:26:22;11.85;;;8.60;;
21671;SDS011;10997;52.242;8.168;2022-08-05T08:31:23;12.30;;;8.93;;
21671;SDS011;10997;52.242;8.168;2022-08-05T08:36:23;12.10;;;8.10;;
21671;SDS011;10997;52.242;8.168;2022-08-05T08:41:25;13.73;;;9.10;;
21671;SDS011;10997;52.242;8.168;2022-08-05T08:46:29;14.23;;;8.93;;
21671;SDS011;10997;52.242;8.168;2022-08-05T08:51:31;12.77;;;9.23;;
21671;SDS011;10997;52.242;8.168;2022-08-05T08:56:33;11.85;;;9.63;;
21671;SDS011;10997;52.242;8.168;2022-08-05T09:01:35;10.05;;;9.02;;
21671;SDS011;10997;52.242;8.168;2022-08-05T09:06:36;15.20;;;10.13;;
21671;SDS011;10997;52.242;8.168;2022-08-05T09:11:37;13.88;;;10.38;;
21671;SDS011;10997;52.242;8.168;2022-08-05T09:16:38;14.35;;;10.75;;
21671;SDS011;10997;52.242;8.168;2022-08-05T09:21:39;13.77;;;10.85;;
21671;SDS011;10997;52.242;8.168;2022-08-05T09:26:40;13.25;;;11.05;;
21671;SDS011;10997;52.242;8.168;2022-08-05T09:31:40;12.95;;;10.82;;
21671;SDS011;10997;52.242;8.168;2022-08-05T09:36:45;14.70;;;10.88;;
21671;SDS011;10997;52.242;8.168;2022-08-05T09:47:42;12.68;;;11.18;;
21671;SDS011;10997;52.242;8.168;2022-08-05T09:52:34;11.65;;;10.45;;
21671;SDS011;10997;52.242;8.168;2022-08-05T09:57:42;13.00;;;10.63;;
21671;SDS011;10997;52.242;8.168;2022-08-05T10:02:47;13.57;;;10.63;;
21671;SDS011;10997;52.242;8.168;2022-08-05T10:07:50;11.70;;;9.60;;
21671;SDS011;10997;52.242;8.168;2022-08-05T10:12:59;13.07;;;9.77;;
21671;SDS011;10997;52.242;8.168;2022-08-05T10:23:18;11.85;;;10.48;;
21671;SDS011;10997;52.242;8.168;2022-08-05T10:28:20;12.63;;;10.02;;
21671;SDS011;10997;52.242;8.168;2022-08-05T10:33:22;11.82;;;8.18;;
21671;SDS011;10997;52.242;8.168;2022-08-05T10:38:26;8.73;;;6.13;;
21671;SDS011;10997;52.242;8.168;2022-08-05T10:48:55;9.23;;;5.43;;
21671;SDS011;10997;52.242;8.168;2022-08-05T10:53:59;8.40;;;5.35;;
21671;SDS011;10997;52.242;8.168;2022-08-05T10:59:04;8.40;;;5.32;;
21671;SDS011;10997;52.242;8.168;2022-08-05T11:09:17;6.68;;;3.67;;
21671;SDS011;10997;52.242;8.168;2022-08-05T11:14:24;5.63;;;2.63;;
21671;SDS011;10997;52.242;8.168;2022-08-05T11:19:35;3.85;;;2.30;;
21671;SDS011;10997;52.242;8.168;2022-08-05T11:24:44;5.28;;;2.60;;
21671;SDS011;10997;52.242;8.168;2022-08-05T11:29:45;5.45;;;2.67;;
21671;SDS011;10997;52.242;8.168;2022-08-05T11:34:59;6.53;;;2.97;;
21671;SDS011;10997;52.242;8.168;2022-08-05T11:39:59;3.28;;;2.92;;
21671;SDS011;10997;52.242;8.168;2022-08-05T11:45:01;5.65;;;3.40;;
21671;SDS011;10997;52.242;8.168;2022-08-05T11:50:03;8.18;;;3.72;;
21671;SDS011;10997;52.242;8.168;2022-08-05T11:55:04;4.80;;;2.58;;
21671;SDS011;10997;52.242;8.168;2022-08-05T12:00:23;3.85;;;1.95;;
21671;SDS011;10997;52.242;8.168;2022-08-05T12:05:25;4.18;;;2.65;;
21671;SDS011;10997;52.242;8.168;2022-08-05T12:10:27;4.53;;;2.42;;
21671;SDS011;10997;52.242;8.168;2022-08-05T12:15:31;4.32;;;2.53;;
21671;SDS011;10997;52.242;8.168;2022-08-05T12:20:32;3.40;;;2.60;;
21671;SDS011;10997;52.242;8.168;2022-08-05T12:25:52;6.03;;;3.53;;
21671;SDS011;10997;52.242;8.168;2022-08-05T12:30:55;6.43;;;3.58;;
21671;SDS011;10997;52.242;8.168;2022-08-05T12:35:56;7.13;;;3.80;;
21671;SDS011;10997;52.242;8.168;2022-08-05T12:40:57;4.50;;;3.60;;
21671;SDS011;10997;52.242;8.168;2022-08-05T12:45:58;7.30;;;3.63;;
21671;SDS011;10997;52.242;8.168;2022-08-05T12:51:09;6.95;;;3.40;;
21671;SDS011;10997;52.242;8.168;2022-08-05T12:56:14;6.40;;;3.60;;
21671;SDS011;10997;52.242;8.168;2022-08-05T13:01:22;6.68;;;2.97;;
21671;SDS011;10997;52.242;8.168;2022-08-05T13:06:24;5.60;;;3.00;;
21671;SDS011;10997;52.242;8.168;2022-08-05T13:11:28;3.47;;;2.50;;
21671;SDS011;10997;52.242;8.168;2022-08-05T13:16:30;6.40;;;2.97;;
21671;SDS011;10997;52.242;8.168;2022-08-05T13:21:30;3.80;;;2.50;;
21671;SDS011;10997;52.242;8.168;2022-08-05T13:26:31;6.20;;;2.60;;
21671;SDS011;10997;52.242;8.168;2022-08-05T13:31:32;7.60;;;2.78;;
21671;SDS011;10997;52.242;8.168;2022-08-05T13:36:33;5.72;;;2.78;;
21671;SDS011;10997;52.242;8.168;2022-08-05T13:41:34;6.15;;;3.10;;
21671;SDS011;10997;52.242;8.168;2022-08-05T13:46:35;5.40;;;3.00;;
21671;SDS011;10997;52.242;8.168;2022-08-05T13:51:36;4.93;;;3.20;;
21671;SDS011;10997;52.242;8.168;2022-08-05T13:56:36;7.97;;;3.30;;
21671;SDS011;10997;52.242;8.168;2022-08-05T14:01:37;4.78;;;3.17;;
21671;SDS011;10997;52.242;8.168;2022-08-05T14:06:38;6.38;;;2.80;;
21671;SDS011;10997;52.242;8.168;2022-08-05T14:11:39;5.28;;;2.60;;
21671;SDS011;10997;52.242;8.168;2022-08-05T14:16:40;6.85;;;2.33;;
21671;SDS011;10997;52.242;8.168;2022-08-05T14:21:41;3.70;;;1.60;;
21671;SDS011;10997;52.242;8.168;2022-08-05T14:26:42;3.80;;;1.55;;
21671;SDS011;10997;52.242;8.168;2022-08-05T14:31:43;4.40;;;1.30;;
21671;SDS011;10997;52.242;8.168;2022-08-05T14:36:44;3.90;;;1.40;;
21671;SDS011;10997;52.242;8.168;2022-08-05T14:41:45;3.97;;;1.05;;
21671;SDS011;10997;52.242;8.168;2022-08-05T14:46:45;5.47;;;0.90;;
21671;SDS011;10997;52.242;8.168;2022-08-05T14:51:46;4.20;;;1.00;;
21671;SDS011;10997;52.242;8.168;2022-08-05T14:56:47;2.30;;;0.93;;
21671;SDS011;10997;52.242;8.168;2022-08-05T15:01:48;2.15;;;0.70;;
21671;SDS011;10997;52.242;8.168;2022-08-05T15:06:49;1.35;;;0.60;;
21671;SDS011;10997;52.242;8.168;2022-08-05T15:11:50;4.80;;;0.73;;
21671;SDS011;10997;52.242;8.168;2022-08-05T15:16:51;4.05;;;0.60;;
21671;SDS011;10997;52.242;8.168;2022-08-05T15:21:52;2.80;;;0.60;;
21671;SDS011;10997;52.242;8.168;2022-08-05T15:26:53;1.83;;;0.50;;
21671;SDS011;10997;52.242;8.168;2022-08-05T15:31:54;1.50;;;0.57;;
21671;SDS011;10997;52.242;8.168;2022-08-05T15:36:54;2.40;;;0.50;;
21671;SDS011;10997;52.242;8.168;2022-08-05T15:41:55;2.50;;;0.60;;
21671;SDS011;10997;52.242;8.168;2022-08-05T15:46:55;3.22;;;0.65;;
21671;SDS011;10997;52.242;8.168;2022-08-05T15:51:56;1.50;;;0.80;;
21671;SDS011;10997;52.242;8.168;2022-08-05T15:56:57;3.15;;;0.63;;
21671;SDS011;10997;52.242;8.168;2022-08-05T16:01:58;8.30;;;0.70;;
21671;SDS011;10997;52.242;8.168;2022-08-05T16:06:58;2.35;;;0.77;;
21671;SDS011;10997;52.242;8.168;2022-08-05T16:11:59;2.90;;;0.70;;
21671;SDS011;10997;52.242;8.168;2022-08-05T16:17:00;6.20;;;0.80;;
21671;SDS011;10997;52.242;8.168;2022-08-05T16:22:01;2.45;;;0.70;;
21671;SDS011;10997;52.242;8.168;2022-08-05T16:27:02;3.45;;;0.85;;
21671;SDS011;10997;52.242;8.168;2022-08-05T16:32:04;3.65;;;0.60;;
21671;SDS011;10997;52.242;8.168;2022-08-05T16:37:08;1.00;;;0.57;;
21671;SDS011;10997;52.242;8.168;2022-08-05T16:42:08;2.47;;;0.57;;
21671;SDS011;10997;52.242;8.168;2022-08-05T16:47:09;2.85;;;0.85;;
21671;SDS011;10997;52.242;8.168;2022-08-05T16:52:10;1.48;;;0.50;;
21671;SDS011;10997;52.242;8.168;2022-08-05T16:57:10;2.47;;;0.63;;
21671;SDS011;10997;52.242;8.168;2022-08-05T17:02:11;2.67;;;0.60;;
21671;SDS011;10997;52.242;8.168;2022-08-05T17:07:12;2.40;;;0.65;;
21671;SDS011;10997;52.242;8.168;2022-08-05T17:12:12;1.52;;;0.50;;
21671;SDS011;10997;52.242;8.168;2022-08-05T17:17:13;3.47;;;0.70;;
21671;SDS011;10997;52.242;8.168;2022-08-05T17:22:14;0.95;;;0.70;;
21671;SDS011;10997;52.242;8.168;2022-08-05T17:27:15;2.13;;;0.50;;
21671;SDS011;10997;52.242;8.168;2022-08-05T17:32:16;1.92;;;0.80;;
21671;SDS011;10997;52.242;8.168;2022-08-05T17:37:16;2.15;;;0.60;;
21671;SDS011;10997;52.242;8.168;2022-08-05T17:42:18;2.72;;;0.85;;
21671;SDS011;10997;52.242;8.168;2022-08-05T17:47:19;1.88;;;0.60;;
21671;SDS011;10997;52.242;8.168;2022-08-05T17:52:20;1.65;;;0.80;;
21671;SDS011;10997;52.242;8.168;2022-08-05T17:57:21;2.42;;;0.68;;
21671;SDS011;10997;52.242;8.168;2022-08-05T18:02:21;3.33;;;0.70;;
21671;SDS011;10997;52.242;8.168;2022-08-05T18:07:22;1.45;;;0.65;;
21671;SDS011;10997;52.242;8.168;2022-08-05T18:12:23;1.85;;;0.70;;
21671;SDS011;10997;52.242;8.168;2022-08-05T18:17:23;3.53;;;0.90;;
21671;SDS011;10997;52.242;8.168;2022-08-05T18:22:24;3.95;;;0.75;;
21671;SDS011;10997;52.242;8.168;2022-08-05T18:27:25;3.60;;;1.00;;
21671;SDS011;10997;52.242;8.168;2022-08-05T18:32:25;4.75;;;0.90;;
21671;SDS011;10997;52.242;8.168;2022-08-05T18:37:26;2.35;;;0.88;;
21671;SDS011;10997;52.242;8.168;2022-08-05T18:42:27;3.25;;;0.60;;
21671;SDS011;10997;52.242;8.168;2022-08-05T18:47:28;2.65;;;0.80;;
21671;SDS011;10997;52.242;8.168;2022-08-05T18:52:29;5.40;;;0.82;;
21671;SDS011;10997;52.242;8.168;2022-08-05T18:57:34;2.53;;;0.87;;
21671;SDS011;10997;52.242;8.168;2022-08-05T19:02:35;1.70;;;0.80;;
21671;SDS011;10997;52.242;8.168;2022-08-05T19:07:36;2.42;;;0.70;;
21671;SDS011;10997;52.242;8.168;2022-08-05T19:12:37;1.35;;;0.50;;
21671;SDS011;10997;52.242;8.168;2022-08-05T19:17:38;3.00;;;0.70;;
21671;SDS011;10997;52.242;8.168;2022-08-05T19:22:39;2.80;;;0.63;;
21671;SDS011;10997;52.242;8.168;2022-08-05T19:27:40;2.58;;;0.80;;
21671;SDS011;10997;52.242;8.168;2022-08-05T19:32:42;1.20;;;0.98;;
21671;SDS011;10997;52.242;8.168;2022-08-05T19:37:44;1.83;;;0.80;;
21671;SDS011;10997;52.242;8.168;2022-08-05T19:42:45;2.78;;;1.02;;
21671;SDS011;10997;52.242;8.168;2022-08-05T19:47:45;4.10;;;1.08;;
21671;SDS011;10997;52.242;8.168;2022-08-05T19:52:46;4.03;;;0.90;;
21671;SDS011;10997;52.242;8.168;2022-08-05T19:57:47;2.60;;;0.70;;
21671;SDS011;10997;52.242;8.168;2022-08-05T20:02:47;2.65;;;0.82;;
21671;SDS011;10997;52.242;8.168;2022-08-05T20:07:48;3.85;;;0.85;;
21671;SDS011;10997;52.242;8.168;2022-08-05T20:12:49;3.35;;;0.90;;
21671;SDS011;10997;52.242;8.168;2022-08-05T20:17:50;4.32;;;1.00;;
21671;SDS011;10997;52.242;8.168;2022-08-05T20:22:50;1.98;;;0.80;;
21671;SDS011;10997;52.242;8.168;2022-08-05T20:27:51;3.22;;;1.77;;
21671;SDS011;10997;52.242;8.168;2022-08-05T20:32:52;3.00;;;1.70;;
21671;SDS011;10997;52.242;8.168;2022-08-05T20:37:53;3.33;;;1.50;;
21671;SDS011;10997;52.242;8.168;2022-08-05T20:42:53;2.50;;;1.55;;
21671;SDS011;10997;52.242;8.168;2022-08-05T20:47:54;3.25;;;1.50;;
21671;SDS011;10997;52.242;8.168;2022-08-05T20:52:56;3.95;;;1.50;;
21671;SDS011;10997;52.242;8.168;2022-08-05T20:57:56;5.38;;;1.17;;
21671;SDS011;10997;52.242;8.168;2022-08-05T21:02:57;3.70;;;1.20;;
21671;SDS011;10997;52.242;8.168;2022-08-05T21:08:03;3.90;;;1.33;;
21671;SDS011;10997;52.242;8.168;2022-08-05T21:13:05;4.32;;;1.33;;
21671;SDS011;10997;52.242;8.168;2022-08-05T21:18:05;1.95;;;0.98;;
21671;SDS011;10997;52.242;8.168;2022-08-05T21:23:06;4.75;;;1.30;;
21671;SDS011;10997;52.242;8.168;2022-08-05T21:28:07;4.93;;;1.10;;
21671;SDS011;10997;52.242;8.168;2022-08-05T21:33:07;2.00;;;1.15;;
21671;SDS011;10997;52.242;8.168;2022-08-05T21:38:09;2.45;;;1.00;;
21671;SDS011;10997;52.242;8.168;2022-08-05T21:43:10;2.35;;;1.00;;
21671;SDS011;10997;52.242;8.168;2022-08-05T21:48:10;3.15;;;1.02;;
21671;SDS011;10997;52.242;8.168;2022-08-05T21:53:11;4.85;;;1.45;;
21671;SDS011;10997;52.242;8.168;2022-08-05T21:58:12;2.97;;;0.93;;
21671;SDS011;10997;52.242;8.168;2022-08-05T22:03:12;4.00;;;1.20;;
21671;SDS011;10997;52.242;8.168;2022-08-05T22:08:14;1.30;;;1.10;;
21671;SDS011;10997;52.242;8.168;2022-08-05T22:13:15;2.30;;;1.02;;
21671;SDS011;10997;52.242;8.168;2022-08-05T22:18:16;4.53;;;1.48;;
21671;SDS011;10997;52.242;8.168;2022-08-05T22:23:16;2.78;;;1.20;;
21671;SDS011;10997;52.242;8.168;2022-08-05T22:28:35;2.97;;;1.30;;
21671;SDS011;10997;52.242;8.168;2022-08-05T22:33:36;3.45;;;1.20;;
21671;SDS011;10997;52.242;8.168;2022-08-05T22:38:37;3.92;;;1.42;;
21671;SDS011;10997;52.242;8.168;2022-08-05T22:43:37;3.55;;;1.42;;
21671;SDS011;10997;52.242;8.168;2022-08-05T22:48:41;2.88;;;1.42;;
21671;SDS011;10997;52.242;8.168;2022-08-05T22:53:41;3.90;;;1.35;;
21671;SDS011;10997;52.242;8.168;2022-08-05T22:58:42;3.35;;;1.30;;
21671;SDS011;10997;52.242;8.168;2022-08-05T23:03:43;2.20;;;1.30;;
21671;SDS011;10997;52.242;8.168;2022-08-05T23:08:47;3.97;;;1.58;;
21671;SDS011;10997;52.242;8.168;2022-08-05T23:13:47;1.88;;;1.30;;
21671;SDS011;10997;52.242;8.168;2022-08-05T23:18:48;2.13;;;1.30;;
21671;SDS011;10997;52.242;8.168;2022-08-05T23:23:49;3.17;;;1.75;;
21671;SDS011;10997;52.242;8.168;2022-08-05T23:28:49;3.67;;;1.45;;
21671;SDS011;10997;52.242;8.168;2022-08-05T23:33:50;2.60;;;1.48;;
21671;SDS011;10997;52.242;8.168;2022-08-05T23:38:51;2.30;;;1.42;;
21671;SDS011;10997;52.242;8.168;2022-08-05T23:43:53;2.28;;;1.50;;
21671;SDS011;10997;52.242;8.168;2022-08-05T23:48:53;2.30;;;1.50;;
21671;SDS011;10997;52.242;8.168;2022-08-05T23:53:54;5.65;;;1.60;;
21671;SDS011;10997;52.242;8.168;2022-08-05T23:58:55;2.45;;;1.50;;
